createdAt,value
2022-11-05T00:01:55.236Z,84.49
2022-11-05T00:05:16.648Z,85.08
2022-11-05T00:08:38.143Z,85.08
2022-11-05T00:11:59.600Z,85.38
2022-11-05T00:15:21.262Z,85.97
2022-11-05T00:18:24.099Z,86.19
2022-11-05T00:21:45.116Z,86.20
2022-11-05T00:25:06.332Z,86.36
2022-11-05T00:28:09.011Z,86.38
2022-11-05T00:31:14.028Z,85.05
2022-11-05T00:34:16.749Z,84.56
2022-11-05T00:37:19.451Z,83.71
2022-11-05T00:40:22.161Z,83.45
2022-11-05T00:43:43.915Z,83.96
2022-11-05T00:46:46.610Z,84.72
2022-11-05T00:49:49.310Z,84.48
2022-11-05T00:52:57.172Z,83.87
2022-11-05T00:56:00.676Z,84.24
2022-11-05T00:59:03.283Z,83.99
2022-11-05T01:02:06.046Z,83.51
2022-11-05T01:05:09.219Z,82.99
2022-11-05T01:08:13.052Z,83.46
2022-11-05T01:11:33.577Z,83.66
2022-11-05T01:14:36.691Z,83.91
2022-11-05T01:17:39.417Z,84.37
2022-11-05T01:20:42.609Z,84.88
2022-11-05T01:23:45.923Z,84.16
2022-11-05T01:26:48.593Z,84.61
2022-11-05T01:29:51.257Z,84.64
2022-11-05T01:32:54.068Z,84.77
2022-11-05T01:35:56.834Z,85.12
2022-11-05T01:38:59.552Z,85.03
2022-11-05T01:42:02.660Z,84.86
2022-11-05T01:45:15.278Z,85.35
2022-11-05T01:48:32.583Z,85.54
2022-11-05T01:51:35.599Z,86.18
2022-11-05T01:54:39.909Z,86.68
2022-11-05T01:57:42.681Z,86.62
2022-11-05T02:00:45.473Z,86.46
2022-11-05T02:03:50.553Z,86.74
2022-11-05T02:06:54.284Z,86.84
2022-11-05T02:10:08.843Z,86.93
2022-11-05T02:13:12.135Z,86.63
2022-11-05T02:16:28.086Z,86.75
2022-11-05T02:20:10.354Z,86.90
2022-11-05T02:23:30.833Z,86.88
2022-11-05T02:27:04.586Z,85.99
2022-11-05T02:30:26.029Z,86.42
2022-11-05T02:33:56.664Z,86.93
2022-11-05T02:37:08.078Z,87.00
2022-11-05T02:40:16.850Z,86.78
2022-11-05T02:43:35.985Z,85.44
2022-11-05T02:47:04.796Z,85.93
2022-11-05T02:50:16.446Z,86.64
2022-11-05T02:53:31.295Z,86.66
2022-11-05T02:56:39.371Z,86.15
2022-11-05T02:59:42.757Z,86.80
2022-11-05T03:02:45.345Z,86.50
2022-11-05T03:06:07.098Z,86.50
2022-11-05T03:09:43.256Z,86.63
2022-11-05T03:13:09.508Z,85.88
2022-11-05T03:16:21.303Z,86.66
2022-11-05T03:19:36.820Z,86.71
2022-11-05T03:22:46.786Z,86.79
2022-11-05T03:25:55.681Z,86.91
2022-11-05T03:29:08.642Z,87.06
2022-11-05T03:32:13.661Z,87.44
2022-11-05T03:35:34.394Z,87.30
2022-11-05T03:38:41.823Z,87.51
2022-11-05T03:41:49.208Z,87.51
2022-11-05T03:44:57.100Z,86.30
2022-11-05T03:48:01.830Z,86.72
2022-11-05T03:51:04.866Z,86.95
2022-11-05T03:54:07.981Z,87.01
2022-11-05T03:57:18.496Z,86.02
2022-11-05T04:00:22.510Z,86.67
2022-11-05T04:03:25.562Z,86.83
2022-11-05T04:06:46.609Z,86.66
2022-11-05T04:10:07.975Z,87.00
2022-11-05T04:13:26.478Z,86.76
2022-11-05T04:16:48.164Z,85.40
2022-11-05T04:20:09.627Z,86.05
2022-11-05T04:23:31.133Z,85.54
2022-11-05T04:26:34.610Z,85.77
2022-11-05T04:29:56.019Z,84.50
2022-11-05T04:33:04.294Z,85.62
2022-11-05T04:36:07.679Z,85.71
2022-11-05T04:39:10.199Z,85.16
2022-11-05T04:42:13.213Z,85.18
2022-11-05T04:45:15.781Z,85.32
2022-11-05T04:48:18.785Z,84.39
2022-11-05T04:51:21.207Z,84.47
2022-11-05T04:54:24.324Z,84.44
2022-11-05T04:57:26.749Z,84.91
2022-11-05T05:00:29.854Z,84.75
2022-11-05T05:03:32.380Z,84.13
2022-11-05T05:06:35.379Z,84.97
2022-11-05T05:09:37.896Z,84.88
2022-11-05T05:12:40.962Z,85.12
2022-11-05T05:15:43.389Z,85.06
2022-11-05T05:18:46.721Z,85.00
2022-11-05T05:21:49.551Z,83.61
2022-11-05T05:24:53.077Z,83.90
2022-11-05T05:27:59.117Z,83.19
2022-11-05T05:31:02.218Z,83.63
2022-11-05T05:34:05.532Z,84.22
2022-11-05T05:37:08.596Z,84.33
2022-11-05T05:40:11.890Z,83.96
2022-11-05T05:43:15.012Z,84.01
2022-11-05T05:46:19.038Z,82.91
2022-11-05T05:49:22.066Z,83.07
2022-11-05T05:52:24.539Z,83.61
2022-11-05T05:55:27.665Z,83.29
2022-11-05T05:58:36.075Z,83.50
2022-11-05T06:01:39.611Z,83.49
2022-11-05T06:04:43.097Z,83.50
2022-11-05T06:07:45.902Z,83.47
2022-11-05T06:10:52.084Z,83.08
2022-11-05T06:13:55.262Z,82.99
2022-11-05T06:16:57.968Z,83.06
2022-11-05T06:20:00.755Z,82.56
2022-11-05T06:23:03.514Z,83.35
2022-11-05T06:26:09.482Z,82.61
2022-11-05T06:29:12.414Z,82.53
2022-11-05T06:32:15.075Z,82.89
2022-11-05T06:35:18.003Z,83.06
2022-11-05T06:38:21.173Z,82.79
2022-11-05T06:41:23.933Z,82.12
2022-11-05T06:44:26.651Z,81.67
2022-11-05T06:47:29.420Z,82.42
2022-11-05T06:50:32.164Z,82.86
2022-11-05T06:53:35.449Z,83.10
2022-11-05T06:56:38.158Z,82.96
2022-11-05T06:59:41.369Z,82.41
2022-11-05T07:02:44.699Z,82.73
2022-11-05T07:05:49.507Z,83.02
2022-11-05T07:08:52.206Z,82.99
2022-11-05T07:11:57.232Z,81.20
2022-11-05T07:15:00.062Z,81.27
2022-11-05T07:18:02.819Z,81.20
2022-11-05T07:21:05.794Z,81.02
2022-11-05T07:24:08.966Z,81.16
2022-11-05T07:27:11.746Z,80.84
2022-11-05T07:30:14.635Z,81.04
2022-11-05T07:33:17.823Z,80.57
2022-11-05T07:36:20.617Z,80.28
2022-11-05T07:39:23.483Z,79.75
2022-11-05T07:42:26.261Z,78.91
2022-11-05T07:45:30.893Z,78.49
2022-11-05T07:48:33.787Z,78.42
2022-11-05T07:51:36.515Z,78.57
2022-11-05T07:54:39.231Z,76.44
2022-11-05T07:57:43.642Z,76.61
2022-11-05T08:00:46.542Z,76.64
2022-11-05T08:03:49.603Z,76.80
2022-11-05T08:06:52.013Z,76.35
2022-11-05T08:09:55.115Z,76.50
2022-11-05T08:12:58.861Z,74.95
2022-11-05T08:16:02.282Z,74.32
2022-11-05T08:19:04.866Z,75.13
2022-11-05T08:22:09.968Z,75.15
2022-11-05T08:25:13.223Z,75.03
2022-11-05T08:28:16.270Z,75.28
2022-11-05T08:31:18.698Z,74.23
2022-11-05T08:34:21.865Z,72.91
2022-11-05T08:37:24.357Z,73.05
2022-11-05T08:40:27.542Z,72.11
2022-11-05T08:43:30.033Z,72.18
2022-11-05T08:46:40.377Z,71.54
2022-11-05T08:49:43.991Z,71.06
2022-11-05T08:52:47.010Z,70.20
2022-11-05T08:55:51.425Z,70.17
2022-11-05T08:58:54.406Z,68.73
2022-11-05T09:01:57.193Z,68.96
2022-11-05T09:05:01.154Z,68.32
2022-11-05T09:08:11.817Z,67.70
2022-11-05T09:11:15.024Z,67.62
2022-11-05T09:14:17.546Z,66.69
2022-11-05T09:17:21.531Z,67.63
2022-11-05T09:20:24.021Z,67.99
2022-11-05T09:23:26.995Z,68.15
2022-11-05T09:26:29.362Z,68.28
2022-11-05T09:29:32.474Z,68.12
2022-11-05T09:32:35.039Z,68.56
2022-11-05T09:35:40.116Z,67.25
2022-11-05T09:38:42.901Z,67.42
2022-11-05T09:41:46.996Z,66.75
2022-11-05T09:44:52.023Z,67.07
2022-11-05T09:48:14.999Z,65.89
2022-11-05T09:51:23.656Z,65.52
2022-11-05T09:54:31.728Z,64.41
2022-11-05T09:57:54.763Z,61.41
2022-11-05T10:00:58.616Z,60.93
2022-11-05T10:04:07.982Z,60.33
2022-11-05T10:07:16.392Z,60.33
2022-11-05T10:11:07.522Z,60.38
2022-11-05T10:14:32.052Z,59.14
2022-11-05T10:17:39.229Z,56.58
2022-11-05T10:20:43.071Z,55.56
2022-11-05T10:23:47.437Z,54.45
2022-11-05T10:26:52.897Z,54.21
2022-11-05T10:29:55.819Z,53.40
2022-11-05T10:33:02.379Z,53.59
2022-11-05T10:36:09.623Z,54.16
2022-11-05T10:39:15.624Z,55.49
2022-11-05T10:42:43.330Z,55.99
2022-11-05T10:46:18.090Z,56.07
2022-11-05T10:49:39.594Z,55.23
2022-11-05T10:52:51.450Z,56.24
2022-11-05T10:55:54.655Z,56.90
2022-11-05T10:59:00.005Z,56.86
2022-11-05T11:02:27.061Z,56.18
2022-11-05T11:05:36.871Z,57.03
2022-11-05T11:08:43.422Z,56.59
2022-11-05T11:11:46.264Z,55.61
2022-11-05T11:15:14.390Z,55.72
2022-11-05T11:18:34.555Z,55.78
2022-11-05T11:21:41.706Z,55.36
2022-11-05T11:24:48.088Z,55.22
2022-11-05T11:27:51.651Z,54.93
2022-11-05T11:31:02.585Z,55.44
2022-11-05T11:34:26.763Z,54.28
2022-11-05T11:37:42.127Z,53.84
2022-11-05T11:40:45.439Z,52.72
2022-11-05T11:43:48.568Z,52.37
2022-11-05T11:46:54.215Z,51.66
2022-11-05T11:49:59.660Z,51.34
2022-11-05T11:53:20.767Z,53.04
2022-11-05T11:56:23.585Z,53.05
2022-11-05T11:59:53.752Z,53.95
2022-11-05T12:03:07.175Z,53.96
2022-11-05T12:06:29.947Z,54.07
2022-11-05T12:09:41.510Z,55.09
2022-11-05T12:13:20.483Z,55.69
2022-11-05T12:16:42.103Z,55.96
2022-11-05T12:20:02.125Z,55.75
2022-11-05T12:23:23.714Z,56.57
2022-11-05T12:26:44.729Z,56.51
2022-11-05T12:30:07.651Z,56.38
2022-11-05T12:33:21.427Z,57.40
2022-11-05T12:36:55.559Z,57.61
2022-11-05T12:40:22.804Z,58.29
2022-11-05T12:43:43.932Z,58.83
2022-11-05T12:47:11.375Z,58.99
2022-11-05T12:50:41.795Z,58.86
2022-11-05T12:53:56.520Z,59.32
2022-11-05T12:57:03.646Z,59.86
2022-11-05T13:00:21.849Z,60.41
2022-11-05T13:03:31.069Z,60.53
2022-11-05T13:06:49.789Z,60.86
2022-11-05T13:09:59.419Z,61.20
2022-11-05T13:13:11.198Z,61.39
2022-11-05T13:16:24.378Z,61.79
2022-11-05T13:19:33.513Z,62.39
2022-11-05T13:22:44.583Z,62.82
2022-11-05T13:25:59.486Z,62.47
2022-11-05T13:29:07.519Z,63.20
2022-11-05T13:32:31.302Z,64.02
2022-11-05T13:36:18.938Z,63.71
2022-11-05T13:39:27.781Z,63.59
2022-11-05T13:42:52.255Z,64.48
2022-11-05T13:45:54.938Z,64.69
2022-11-05T13:49:28.132Z,65.29
2022-11-05T13:52:54.545Z,65.18
2022-11-05T13:56:18.131Z,65.54
2022-11-05T13:59:35.852Z,64.33
2022-11-05T14:02:45.429Z,64.52
2022-11-05T14:06:02.301Z,65.96
2022-11-05T14:09:10.237Z,65.50
2022-11-05T14:12:35.279Z,66.15
2022-11-05T14:15:38.134Z,66.92
2022-11-05T14:18:46.633Z,66.80
2022-11-05T14:21:59.127Z,66.69
2022-11-05T14:25:20.952Z,66.53
2022-11-05T14:28:36.360Z,65.95
2022-11-05T14:35:17.365Z,67.66
2022-11-05T14:38:26.053Z,66.69
2022-11-05T14:41:28.940Z,66.66
2022-11-05T14:44:35.060Z,66.45
2022-11-05T14:47:44.457Z,65.72
2022-11-05T14:50:49.211Z,66.10
2022-11-05T14:54:27.502Z,66.86
2022-11-05T14:57:42.482Z,66.72
2022-11-05T15:00:47.236Z,66.85
2022-11-05T15:04:26.144Z,66.86
2022-11-05T15:07:37.630Z,66.97
2022-11-05T15:10:41.870Z,68.15
2022-11-05T15:13:53.887Z,68.59
2022-11-05T15:17:04.004Z,67.37
2022-11-05T15:20:06.714Z,68.26
2022-11-05T15:23:16.885Z,68.55
2022-11-05T15:26:52.466Z,68.25
2022-11-05T15:29:55.308Z,68.15
2022-11-05T15:33:27.920Z,69.13
2022-11-05T15:36:31.541Z,69.77
2022-11-05T15:39:40.992Z,69.03
2022-11-05T15:42:43.752Z,70.29
2022-11-05T15:45:59.574Z,70.19
2022-11-05T15:49:07.100Z,70.60
2022-11-05T15:52:15.640Z,71.15
2022-11-05T15:55:24.673Z,71.39
2022-11-05T15:58:28.327Z,71.71
2022-11-05T16:01:46.897Z,70.95
2022-11-05T16:04:51.257Z,70.57
2022-11-05T16:07:54.119Z,70.46
2022-11-05T16:11:01.087Z,70.33
2022-11-05T16:14:16.212Z,69.94
2022-11-05T16:17:22.755Z,70.76
2022-11-05T16:20:28.345Z,70.66
2022-11-05T16:23:49.699Z,70.67
2022-11-05T16:27:02.633Z,70.96
2022-11-05T16:30:06.401Z,71.71
2022-11-05T16:33:13.591Z,71.63
2022-11-05T16:36:17.233Z,71.79
2022-11-05T16:39:19.997Z,72.42
2022-11-05T16:42:23.077Z,72.84
2022-11-05T16:45:25.655Z,72.75
2022-11-05T16:48:29.250Z,73.17
2022-11-05T16:51:31.858Z,73.72
2022-11-05T16:54:34.941Z,74.43
2022-11-05T16:57:37.503Z,74.30
2022-11-05T17:00:41.172Z,74.19
2022-11-05T17:03:45.086Z,75.30
2022-11-05T17:06:49.931Z,75.21
2022-11-05T17:09:52.488Z,75.92
2022-11-05T17:12:55.879Z,76.27
2022-11-05T17:15:58.447Z,76.63
2022-11-05T17:19:01.470Z,77.26
2022-11-05T17:22:04.343Z,77.36
2022-11-05T17:25:07.745Z,78.19
2022-11-05T17:28:11.229Z,78.53
2022-11-05T17:31:15.492Z,78.26
2022-11-05T17:34:17.929Z,78.75
2022-11-05T17:37:23.143Z,79.24
2022-11-05T17:40:25.669Z,80.11
2022-11-05T17:43:28.767Z,80.47
2022-11-05T17:46:31.631Z,80.76
2022-11-05T17:49:34.638Z,80.44
2022-11-05T17:52:37.214Z,80.59
2022-11-05T17:55:44.298Z,81.11
2022-11-05T17:58:47.152Z,81.84
2022-11-05T18:01:50.309Z,81.79
2022-11-05T18:04:53.223Z,81.62
2022-11-05T18:07:55.939Z,81.78
2022-11-05T18:10:58.926Z,82.17
2022-11-05T18:14:02.252Z,82.33
2022-11-05T18:17:04.881Z,82.75
2022-11-05T18:20:14.206Z,83.03
2022-11-05T18:23:21.302Z,83.53
2022-11-05T18:26:24.037Z,83.42
2022-11-05T18:29:26.850Z,83.63
2022-11-05T18:32:30.014Z,83.89
2022-11-05T18:35:32.993Z,84.16
2022-11-05T18:38:35.692Z,84.54
2022-11-05T18:41:39.008Z,84.56
2022-11-05T18:44:41.620Z,84.34
2022-11-05T18:47:44.564Z,84.88
2022-11-05T18:50:47.299Z,85.23
2022-11-05T18:53:50.084Z,84.84
2022-11-05T18:56:52.957Z,85.31
2022-11-05T18:59:56.517Z,85.72
2022-11-05T19:02:59.394Z,85.67
2022-11-05T19:06:04.368Z,85.15
2022-11-05T19:09:09.795Z,85.79
2022-11-05T19:12:12.773Z,86.39
2022-11-05T19:15:15.664Z,86.72
2022-11-05T19:18:18.422Z,86.76
2022-11-05T19:21:23.052Z,86.97
2022-11-05T19:24:25.775Z,87.27
2022-11-05T19:27:28.523Z,87.31
2022-11-05T19:30:31.298Z,87.14
2022-11-05T19:33:34.022Z,87.01
2022-11-05T19:36:37.275Z,87.08
2022-11-05T19:39:41.172Z,86.69
2022-11-05T19:42:43.751Z,86.95
2022-11-05T19:45:47.038Z,87.06
2022-11-05T19:48:50.184Z,86.77
2022-11-05T19:51:52.795Z,87.39
2022-11-05T19:54:55.523Z,87.80
2022-11-05T19:57:58.249Z,88.04
2022-11-05T20:01:01.966Z,87.84
2022-11-05T20:04:05.868Z,87.61
2022-11-05T20:07:08.265Z,88.09
2022-11-05T20:10:11.187Z,87.96
2022-11-05T20:13:19.691Z,88.29
2022-11-05T20:16:29.545Z,88.15
2022-11-05T20:19:32.158Z,88.40
2022-11-05T20:22:35.248Z,88.81
2022-11-05T20:25:37.844Z,89.00
2022-11-05T20:28:43.717Z,88.82
2022-11-05T20:31:46.286Z,88.86
2022-11-05T20:34:49.287Z,89.12
2022-11-05T20:37:54.209Z,89.35
2022-11-05T20:40:57.580Z,89.05
2022-11-05T20:44:00.115Z,89.17
2022-11-05T20:47:03.188Z,88.51
2022-11-05T20:50:06.412Z,88.74
2022-11-05T20:53:13.109Z,88.82
2022-11-05T20:56:26.285Z,88.94
2022-11-05T20:59:29.356Z,89.02
2022-11-05T21:02:31.940Z,89.00
2022-11-05T21:05:35.756Z,88.75
2022-11-05T21:08:38.326Z,88.64
2022-11-05T21:11:59.896Z,88.24
2022-11-05T21:15:02.437Z,88.55
2022-11-05T21:18:05.538Z,88.68
2022-11-05T21:21:12.862Z,88.56
2022-11-05T21:24:15.910Z,88.96
2022-11-05T21:27:18.502Z,88.62
2022-11-05T21:30:21.636Z,88.86
2022-11-05T21:33:24.092Z,88.60
2022-11-05T21:36:27.070Z,88.46
2022-11-05T21:39:29.849Z,88.58
2022-11-05T21:42:32.697Z,88.70
2022-11-05T21:45:35.157Z,88.91
2022-11-05T21:48:38.245Z,89.04
2022-11-05T21:51:59.120Z,89.05
2022-11-05T21:55:21.055Z,88.86
2022-11-05T21:58:42.497Z,88.79
2022-11-05T22:01:45.868Z,88.96
2022-11-05T22:04:54.771Z,88.69
2022-11-05T22:07:57.749Z,88.54
2022-11-05T22:11:03.768Z,88.56
2022-11-05T22:14:06.603Z,88.43
2022-11-05T22:17:10.252Z,88.64
2022-11-05T22:20:13.011Z,88.74
2022-11-05T22:23:15.689Z,88.84
2022-11-05T22:26:18.950Z,88.93
2022-11-05T22:29:22.559Z,88.55
2022-11-05T22:32:25.327Z,88.49
2022-11-05T22:35:29.022Z,88.63
2022-11-05T22:38:31.850Z,88.16
2022-11-05T22:41:34.710Z,88.84
2022-11-05T22:44:37.584Z,88.92
2022-11-05T22:47:43.571Z,89.12
2022-11-05T22:50:46.328Z,88.84
2022-11-05T22:53:49.631Z,88.63
2022-11-05T22:56:53.794Z,88.81
2022-11-05T22:59:56.540Z,88.99
2022-11-05T23:02:59.420Z,89.13
2022-11-05T23:06:05.546Z,88.76
2022-11-05T23:09:35.128Z,89.08
2022-11-05T23:12:37.978Z,88.96
2022-11-05T23:15:59.231Z,88.77
2022-11-05T23:19:20.539Z,88.95
2022-11-05T23:22:49.346Z,89.19
2022-11-05T23:25:56.744Z,89.10
2022-11-05T23:28:59.485Z,89.12
2022-11-05T23:32:20.918Z,89.10
2022-11-05T23:35:42.227Z,89.37
2022-11-05T23:38:45.337Z,88.65
2022-11-05T23:42:06.958Z,88.65
2022-11-05T23:45:28.871Z,89.21
2022-11-05T23:48:37.295Z,89.27
2022-11-05T23:51:40.183Z,89.31
2022-11-05T23:54:43.045Z,89.06
2022-11-05T23:57:46.414Z,88.97
